Time;durP1;ratioP1;P1;durP2;ratioP2;P2;SDS_P1;SDS_P2;PMS_P1;PMS_P2;Temp;Humidity;BMP_temperature;BMP_pressure;BME280_temperature;BME280_humidity;BME280_pressure;Samples;Min_cycle;Max_cycle;Signal;HPM_P1;HPM_P2
2021/12/17 00:01:01;;;;;;;35.70;27.67;;;7.70;99.90;;;;;;5015594;28;20276;-60
2021/12/17 00:03:37;;;;;;;37.53;28.77;;;7.70;99.90;;;;;;5012653;28;20716;-60
2021/12/17 00:06:16;;;;;;;37.70;29.07;;;7.70;99.90;;;;;;5012850;28;20251;-60
2021/12/17 00:08:49;;;;;;;39.30;29.63;;;7.70;99.90;;;;;;5012310;28;20248;-60
2021/12/17 00:11:18;;;;;;;39.87;29.80;;;7.60;99.90;;;;;;5008347;28;20261;-60
2021/12/17 00:13:47;;;;;;;36.43;27.77;;;7.60;99.90;;;;;;5007383;28;20287;-60
2021/12/17 00:16:21;;;;;;;31.37;24.40;;;7.60;99.90;;;;;;5009897;28;20283;-60
2021/12/17 00:19:15;;;;;;;27.67;21.00;;;7.50;99.90;;;;;;5012275;28;20237;-60
2021/12/17 00:50:21;;;;;;;18.17;13.27;;;7.60;99.90;;;;;;5005941;28;20249;-60
2021/12/17 00:52:49;;;;;;;21.37;15.23;;;7.80;99.90;;;;;;5001686;28;20237;-60
2021/12/17 00:55:19;;;;;;;21.87;16.23;;;7.90;99.90;;;;;;5011563;28;20233;-60
2021/12/17 00:57:47;;;;;;;21.33;12.97;;;7.80;99.90;;;;;;5004844;28;20241;-60
2021/12/17 01:00:20;;;;;;;23.57;15.07;;;8.10;99.90;;;;;;5009453;28;20233;-60
2021/12/17 01:02:49;;;;;;;25.40;16.83;;;8.20;99.90;;;;;;5010230;28;20237;-60
2021/12/17 01:05:22;;;;;;;19.37;13.27;;;8.20;99.90;;;;;;5009985;28;20232;-60
2021/12/17 01:07:54;;;;;;;22.03;16.60;;;8.20;99.90;;;;;;5007386;28;20290;-60
2021/12/17 01:10:26;;;;;;;21.07;13.40;;;8.10;99.90;;;;;;5011806;28;20251;-60
2021/12/17 01:13:28;;;;;;;23.83;15.07;;;8.20;99.90;;;;;;5014981;28;20253;-61
2021/12/17 01:16:08;;;;;;;23.33;14.67;;;8.30;99.90;;;;;;5004030;28;20717;-60
2021/12/17 01:19:01;;;;;;;22.00;15.57;;;8.30;99.90;;;;;;5009961;28;20237;-60
2021/12/17 01:21:39;;;;;;;18.80;12.83;;;8.10;99.90;;;;;;5010240;28;20237;-60
2021/12/17 01:24:36;;;;;;;21.13;14.57;;;8.10;99.90;;;;;;4990437;28;20244;-60
2021/12/17 01:36:13;;;;;;;19.57;13.33;;;8.10;99.90;;;;;;5008856;28;20776;-60
2021/12/17 01:41:56;;;;;;;20.53;13.93;;;8.20;99.90;;;;;;5011195;28;20299;-60
2021/12/17 01:44:25;;;;;;;20.43;13.43;;;8.00;99.90;;;;;;4990059;28;20856;-60
2021/12/17 01:46:54;;;;;;;20.67;14.90;;;8.00;99.90;;;;;;4995549;28;20299;-60
2021/12/17 01:55:42;;;;;;;21.83;14.53;;;8.10;99.90;;;;;;5010438;28;20237;-60
2021/12/17 02:00:48;;;;;;;20.43;14.33;;;7.90;99.90;;;;;;5009080;28;20241;-60
2021/12/17 02:03:16;;;;;;;24.03;15.90;;;7.90;99.90;;;;;;5004993;28;20647;-61
2021/12/17 02:05:45;;;;;;;21.03;14.50;;;7.80;99.90;;;;;;5002056;28;20245;-60
2021/12/17 02:08:14;;;;;;;20.30;14.23;;;7.80;99.90;;;;;;4997488;28;20679;-60
2021/12/17 02:30:26;;;;;;;11.93;7.50;;;7.70;99.90;;;;;;5008223;28;20708;-60
2021/12/17 02:32:55;;;;;;;13.83;7.30;;;7.70;99.90;;;;;;5009243;28;20287;-60
2021/12/17 02:35:36;;;;;;;11.26;6.14;;;7.60;99.90;;;;;;1917701;28;10022788;-60
2021/12/17 02:38:08;;;;;;;10.77;6.47;;;7.60;99.90;;;;;;4317784;28;10001333;-60
2021/12/17 02:46:42;;;;;;;11.83;6.53;;;7.70;99.90;;;;;;5003413;28;20233;-60
2021/12/17 02:49:12;;;;;;;11.27;6.17;;;7.60;99.90;;;;;;4989253;28;20238;-60
2021/12/17 02:51:41;;;;;;;8.27;5.30;;;7.60;99.90;;;;;;4990397;28;20238;-60
2021/12/17 02:54:12;;;;;;;9.33;5.27;;;7.60;99.90;;;;;;5010367;28;20295;-60
2021/12/17 02:56:41;;;;;;;7.83;4.57;;;7.60;99.90;;;;;;5007765;28;20233;-60
2021/12/17 02:59:13;;;;;;;6.90;4.07;;;7.50;99.90;;;;;;4991097;28;20252;-60
2021/12/17 03:01:45;;;;;;;7.17;4.13;;;7.50;99.90;;;;;;4990464;28;20257;-60
2021/12/17 03:04:14;;;;;;;5.93;3.90;;;7.60;99.90;;;;;;4990748;28;20679;-60
2021/12/17 03:06:43;;;;;;;6.13;3.50;;;7.50;99.90;;;;;;4988649;28;20236;-60
2021/12/17 03:09:13;;;;;;;5.60;3.70;;;7.50;99.90;;;;;;4989295;28;20320;-60
2021/12/17 03:11:41;;;;;;;5.73;3.40;;;7.50;99.90;;;;;;4990412;28;20256;-60
2021/12/17 03:14:09;;;;;;;4.53;3.23;;;7.50;99.90;;;;;;4994127;28;20702;-60
2021/12/17 03:16:42;;;;;;;5.93;3.87;;;7.50;99.90;;;;;;4997891;28;20582;-60
2021/12/17 03:19:23;;;;;;;4.70;3.07;;;7.50;99.90;;;;;;4994097;28;20288;-60
2021/12/17 03:24:43;;;;;;;5.20;3.60;;;7.40;99.90;;;;;;4996502;28;20280;-60
2021/12/17 03:27:11;;;;;;;5.13;3.57;;;7.40;99.90;;;;;;4999650;28;20238;-60
2021/12/17 03:29:40;;;;;;;5.97;3.97;;;7.40;99.90;;;;;;4988585;28;20234;-60
2021/12/17 03:32:10;;;;;;;4.40;2.77;;;7.40;99.90;;;;;;4992625;28;20717;-60
2021/12/17 03:34:38;;;;;;;4.67;3.40;;;7.50;99.90;;;;;;4993889;28;20256;-60
2021/12/17 03:37:07;;;;;;;4.53;3.17;;;7.50;99.90;;;;;;4997240;28;20713;-60
2021/12/17 03:39:46;;;;;;;5.27;3.13;;;7.40;99.90;;;;;;4973221;28;20290;-60
2021/12/17 03:42:15;;;;;;;4.20;3.23;;;7.50;99.90;;;;;;4990954;28;20292;-60
2021/12/17 03:44:43;;;;;;;4.53;2.97;;;7.40;99.90;;;;;;4992219;28;20728;-60
2021/12/17 03:47:19;;;;;;;5.23;3.27;;;7.50;99.90;;;;;;4992811;28;20225;-60
2021/12/17 03:50:10;;;;;;;4.27;2.93;;;7.50;99.90;;;;;;4984748;28;20253;-60
2021/12/17 03:52:38;;;;;;;4.63;3.00;;;7.40;99.90;;;;;;4993290;28;20320;-60
2021/12/17 03:55:10;;;;;;;5.23;3.13;;;7.50;99.90;;;;;;4992135;28;20248;-60
2021/12/17 03:57:43;;;;;;;4.63;3.17;;;7.50;99.90;;;;;;4990994;28;20234;-60
2021/12/17 04:00:14;;;;;;;4.87;3.00;;;7.40;99.90;;;;;;4976785;28;20246;-60
2021/12/17 04:02:45;;;;;;;5.07;3.20;;;7.40;99.90;;;;;;4993303;28;20245;-60
2021/12/17 04:05:33;;;;;;;5.20;2.93;;;7.40;99.90;;;;;;4996594;28;20308;-60
2021/12/17 04:08:20;;;;;;;5.07;3.20;;;7.30;99.90;;;;;;4997240;28;20248;-60
2021/12/17 04:11:01;;;;;;;4.90;3.10;;;7.30;99.90;;;;;;5012772;28;20276;-60
2021/12/17 04:13:34;;;;;;;5.77;3.20;;;7.30;99.90;;;;;;5002148;28;20237;-61
2021/12/17 04:16:09;;;;;;;7.17;3.47;;;7.30;99.90;;;;;;4996213;28;20240;-60
2021/12/17 04:18:41;;;;;;;4.80;3.20;;;7.40;99.90;;;;;;5018949;28;20592;-60
2021/12/17 04:21:13;;;;;;;6.87;3.47;;;7.40;99.90;;;;;;4992573;28;20265;-60
2021/12/17 04:23:48;;;;;;;4.63;2.73;;;7.50;99.90;;;;;;4991404;28;20237;-60
2021/12/17 04:26:21;;;;;;;4.60;3.00;;;7.70;99.90;;;;;;4991130;28;20607;-60
2021/12/17 04:28:56;;;;;;;6.57;3.20;;;7.60;99.90;;;;;;4991579;28;20315;-60
2021/12/17 04:31:29;;;;;;;5.45;3.75;;;7.50;99.90;;;;;;4990583;28;20432;-60
2021/12/17 04:34:00;;;;;;;4.27;3.07;;;7.50;99.90;;;;;;4314976;28;10001478;-60
2021/12/17 04:36:34;;;;;;;3.88;2.20;;;7.40;99.90;;;;;;2062084;28;10001918;-60
2021/12/17 04:39:09;;;;;;;4.83;2.60;;;7.30;99.90;;;;;;4991132;28;20261;-60
2021/12/17 04:41:48;;;;;;;6.60;2.60;;;7.30;99.90;;;;;;4991039;28;20313;-60
2021/12/17 04:44:22;;;;;;;4.57;2.70;;;7.20;99.90;;;;;;4991227;28;20230;-60
2021/12/17 04:57:11;;;;;;;4.50;2.47;;;7.20;99.90;;;;;;4993449;28;20248;-60
2021/12/17 04:58:12;;;;;;;6.03;2.83;;;7.40;99.90;;;;;;4994032;28;20237;-60
2021/12/17 05:00:41;;;;;;;6.37;3.00;;;7.30;99.90;;;;;;5025539;28;20668;-60
2021/12/17 05:03:14;;;;;;;5.17;2.87;;;7.20;99.90;;;;;;5011874;28;20268;-61
2021/12/17 05:05:46;;;;;;;4.30;2.57;;;7.20;99.90;;;;;;5007858;28;20252;-60
2021/12/17 05:08:28;;;;;;;6.20;3.13;;;7.20;99.90;;;;;;5044674;28;20601;-60
2021/12/17 05:11:19;;;;;;;4.60;2.70;;;7.20;99.90;;;;;;5020392;28;20235;-60
2021/12/17 05:19:32;;;;;;;5.37;2.93;;;7.10;99.90;;;;;;5030218;28;20703;-60
2021/12/17 05:22:08;;;;;;;4.63;2.70;;;7.10;99.90;;;;;;5019038;28;20260;-60
2021/12/17 05:24:40;;;;;;;4.50;2.63;;;7.10;99.90;;;;;;5019831;28;20243;-60
2021/12/17 05:27:10;;;;;;;4.77;2.60;;;7.00;99.90;;;;;;5013876;28;20360;-60
2021/12/17 05:29:48;;;;;;;5.77;2.73;;;7.10;99.90;;;;;;5003020;28;20237;-60
2021/12/17 05:32:16;;;;;;;5.60;2.67;;;7.10;99.90;;;;;;5009831;28;20247;-60
2021/12/17 05:34:47;;;;;;;4.17;2.43;;;7.00;99.90;;;;;;5009567;28;20233;-60
2021/12/17 05:37:18;;;;;;;4.33;2.30;;;7.00;99.90;;;;;;5009577;28;20585;-60
2021/12/17 05:39:47;;;;;;;4.67;2.10;;;7.00;99.90;;;;;;5009965;28;20272;-60
2021/12/17 05:42:15;;;;;;;5.33;2.70;;;7.10;99.90;;;;;;5009821;28;20319;-60
2021/12/17 05:45:08;;;;;;;6.00;2.97;;;7.00;99.90;;;;;;5009816;28;20291;-60
2021/12/17 05:47:37;;;;;;;5.23;2.30;;;7.10;99.90;;;;;;5008792;28;20229;-60
2021/12/17 05:50:06;;;;;;;5.40;2.57;;;7.10;99.90;;;;;;5004108;28;20242;-60
2021/12/17 05:52:35;;;;;;;5.83;2.57;;;7.10;99.90;;;;;;5010810;28;20383;-60
2021/12/17 05:55:04;;;;;;;6.47;2.70;;;7.00;99.90;;;;;;5015626;28;20237;-60
2021/12/17 05:57:32;;;;;;;5.70;2.63;;;7.00;99.90;;;;;;5003122;28;20705;-60
2021/12/17 06:00:02;;;;;;;4.83;2.20;;;7.00;99.90;;;;;;5047580;28;20233;-60
2021/12/17 06:02:31;;;;;;;5.90;2.17;;;7.00;99.90;;;;;;5006788;28;20237;-60
2021/12/17 06:05:00;;;;;;;6.00;2.67;;;7.00;99.90;;;;;;5010468;28;20765;-61
2021/12/17 06:07:29;;;;;;;5.40;2.57;;;7.00;99.90;;;;;;5009377;28;20647;-60
2021/12/17 06:10:03;;;;;;;7.33;2.80;;;7.00;99.90;;;;;;5009583;28;20233;-60
2021/12/17 06:12:40;;;;;;;7.73;2.73;;;7.00;99.90;;;;;;5008972;28;20235;-60
2021/12/17 06:15:12;;;;;;;5.63;2.67;;;7.00;99.90;;;;;;5009417;28;20241;-60
2021/12/17 06:17:42;;;;;;;6.77;2.57;;;7.00;99.90;;;;;;5009069;28;20233;-60
2021/12/17 06:20:14;;;;;;;3.67;1.50;;;7.00;99.90;;;;;;5009105;28;20240;-60
2021/12/17 06:22:45;;;;;;;3.67;1.50;;;6.90;99.90;;;;;;4991383;28;20727;-60
2021/12/17 06:25:14;;;;;;;4.73;1.80;;;6.80;99.90;;;;;;4991327;28;20245;-60
2021/12/17 06:27:42;;;;;;;3.90;1.83;;;6.80;99.90;;;;;;4997249;28;20240;-60
2021/12/17 06:30:17;;;;;;;3.10;1.57;;;6.80;99.90;;;;;;5009213;28;20275;-60
2021/12/17 06:32:45;;;;;;;4.33;1.70;;;6.80;99.90;;;;;;5019766;28;20834;-60
2021/12/17 06:35:19;;;;;;;5.20;1.95;;;6.80;99.90;;;;;;1441543;28;10022769;-61
2021/12/17 06:37:48;;;;;;;3.03;1.70;;;6.80;99.90;;;;;;3992414;28;10001089;-60
2021/12/17 06:40:25;;;;;;;4.43;1.90;;;6.80;99.90;;;;;;5009992;28;20479;-59
2021/12/17 06:42:55;;;;;;;3.37;1.60;;;6.80;99.90;;;;;;4998405;28;20737;-62
2021/12/17 06:45:39;;;;;;;5.10;2.10;;;6.70;99.90;;;;;;5009414;28;20237;-62
2021/12/17 06:48:10;;;;;;;5.83;2.30;;;6.70;99.90;;;;;;5011333;28;20245;-62
2021/12/17 06:57:26;;;;;;;4.67;2.57;;;6.70;99.90;;;;;;5013817;28;20607;-62
2021/12/17 07:00:32;;;;;;;5.27;2.20;;;6.80;99.90;;;;;;5013311;28;20597;-62
2021/12/17 07:06:42;;;;;;;6.87;2.90;;;6.80;99.90;;;;;;5016207;28;20263;-62
2021/12/17 07:21:23;;;;;;;5.67;2.33;;;6.70;99.90;;;;;;4933992;29;20247;-62
2021/12/17 07:32:40;;;;;;;6.17;2.60;;;6.70;99.90;;;;;;4992672;28;20233;-62
2021/12/17 07:40:45;;;;;;;7.73;3.27;;;6.90;99.90;;;;;;5012010;28;20247;-62
2021/12/17 07:43:24;;;;;;;5.40;2.83;;;6.90;99.90;;;;;;5012130;28;20320;-62
2021/12/17 07:45:53;;;;;;;5.67;2.80;;;6.90;99.90;;;;;;5013355;28;20232;-61
2021/12/17 07:48:27;;;;;;;7.23;3.00;;;6.80;99.90;;;;;;5012913;28;20252;-63
2021/12/17 07:51:11;;;;;;;6.17;2.70;;;6.80;99.90;;;;;;5013311;28;20303;-62
2021/12/17 07:53:54;;;;;;;5.67;2.73;;;6.80;99.90;;;;;;5011853;28;20232;-62
2021/12/17 07:56:26;;;;;;;6.30;2.80;;;6.80;99.90;;;;;;5013404;28;20233;-62
2021/12/17 07:59:01;;;;;;;6.53;2.73;;;6.80;99.90;;;;;;4998467;28;20245;-61
2021/12/17 08:01:30;;;;;;;6.10;2.87;;;6.90;99.90;;;;;;4991990;28;20237;-62
2021/12/17 08:03:58;;;;;;;6.83;2.60;;;6.90;99.90;;;;;;5001549;28;20236;-62
2021/12/17 08:06:35;;;;;;;6.40;3.00;;;6.90;99.90;;;;;;5012725;28;20240;-62
2021/12/17 08:09:32;;;;;;;6.07;2.43;;;6.90;99.90;;;;;;5010119;28;20708;-62
2021/12/17 08:12:05;;;;;;;4.23;2.50;;;6.90;99.90;;;;;;5013897;28;20725;-62
2021/12/17 08:14:42;;;;;;;6.37;2.40;;;6.90;99.90;;;;;;5016558;28;20232;-62
2021/12/17 08:17:29;;;;;;;4.00;2.40;;;6.90;99.90;;;;;;5019315;28;20244;-62
2021/12/17 08:25:49;;;;;;;4.23;2.10;;;7.00;99.90;;;;;;5010898;28;20666;-62
2021/12/17 08:28:18;;;;;;;5.10;2.30;;;7.00;99.90;;;;;;5010099;28;20283;-62
2021/12/17 08:30:47;;;;;;;3.83;2.33;;;7.00;99.90;;;;;;5009832;28;20287;-62
2021/12/17 08:33:22;;;;;;;4.07;2.00;;;7.00;99.90;;;;;;5010116;28;20244;-62
2021/12/17 08:36:03;;;;;;;3.99;2.09;;;7.00;99.90;;;;;;1618618;28;10022837;-62
2021/12/17 08:38:35;;;;;;;4.87;2.20;;;7.10;99.90;;;;;;4663635;28;10001659;-61
2021/12/17 08:41:21;;;;;;;3.87;2.07;;;7.10;99.90;;;;;;5010064;28;20283;-62
2021/12/17 08:43:50;;;;;;;3.83;2.13;;;7.10;99.90;;;;;;5011167;28;20496;-63
2021/12/17 08:46:18;;;;;;;4.70;2.40;;;7.10;99.90;;;;;;5009376;28;20233;-61
2021/12/17 08:49:06;;;;;;;3.60;2.00;;;7.10;99.90;;;;;;5013574;28;20251;-62
2021/12/17 08:51:44;;;;;;;3.33;2.10;;;7.10;99.90;;;;;;5012352;28;20232;-62
2021/12/17 08:54:12;;;;;;;3.07;1.90;;;7.10;99.90;;;;;;5014684;28;20243;-62
2021/12/17 08:56:46;;;;;;;3.90;2.20;;;7.10;99.90;;;;;;5015160;28;20280;-62
2021/12/17 08:59:21;;;;;;;4.50;2.60;;;7.10;99.90;;;;;;5010652;28;20318;-61
2021/12/17 09:02:09;;;;;;;3.57;2.60;;;7.20;99.90;;;;;;5010683;28;20241;-62
2021/12/17 09:04:41;;;;;;;3.67;2.40;;;7.20;99.90;;;;;;5009690;28;20284;-62
2021/12/17 09:07:13;;;;;;;3.47;2.33;;;7.20;99.90;;;;;;5031121;28;20237;-62
2021/12/17 09:09:42;;;;;;;2.90;1.80;;;7.10;99.90;;;;;;4994006;28;20626;-62
2021/12/17 09:12:30;;;;;;;3.13;1.40;;;7.10;99.90;;;;;;4994103;28;20288;-62
2021/12/17 09:14:59;;;;;;;2.73;1.90;;;7.10;99.90;;;;;;5007986;28;20697;-62
2021/12/17 09:17:56;;;;;;;2.70;1.80;;;7.10;99.90;;;;;;5006987;28;20233;-62
2021/12/17 09:20:26;;;;;;;2.77;1.70;;;7.10;99.90;;;;;;5008040;28;20232;-62
2021/12/17 09:22:54;;;;;;;3.20;1.93;;;7.10;99.90;;;;;;5012946;28;20788;-62
2021/12/17 09:25:29;;;;;;;2.40;1.80;;;7.10;99.90;;;;;;5025937;28;20233;-61
2021/12/17 09:28:02;;;;;;;2.60;1.80;;;7.10;99.90;;;;;;5011488;28;20233;-61
2021/12/17 09:30:43;;;;;;;3.53;2.07;;;7.10;99.90;;;;;;5016347;28;20229;-62
2021/12/17 09:33:11;;;;;;;3.37;2.00;;;7.10;99.90;;;;;;5012349;28;20248;-62
2021/12/17 09:35:40;;;;;;;5.27;2.23;;;7.20;99.90;;;;;;5010009;28;20596;-62
2021/12/17 09:38:09;;;;;;;4.07;2.20;;;7.20;99.90;;;;;;5014445;28;20315;-62
2021/12/17 09:40:37;;;;;;;3.30;2.03;;;7.20;99.90;;;;;;5014831;28;20260;-61
2021/12/17 09:43:07;;;;;;;3.20;2.13;;;7.10;99.90;;;;;;5015066;28;20250;-62
2021/12/17 09:45:35;;;;;;;4.60;3.00;;;7.10;99.90;;;;;;5009923;28;20581;-62
2021/12/17 09:48:04;;;;;;;3.00;2.50;;;7.10;99.90;;;;;;5009975;28;20245;-62
2021/12/17 09:50:32;;;;;;;4.13;2.90;;;7.10;99.90;;;;;;5010008;28;20476;-62
2021/12/17 09:53:01;;;;;;;4.80;2.80;;;7.20;99.90;;;;;;5005593;28;20237;-62
2021/12/17 09:55:29;;;;;;;4.37;2.87;;;7.10;99.90;;;;;;4990084;28;20933;-62
2021/12/17 09:57:57;;;;;;;3.87;2.87;;;7.10;99.90;;;;;;5007724;28;20732;-63
2021/12/17 10:00:28;;;;;;;4.70;3.30;;;7.10;99.90;;;;;;5014943;28;20268;-62
2021/12/17 10:03:00;;;;;;;6.13;3.77;;;7.10;99.90;;;;;;5017968;28;20466;-62
2021/12/17 10:05:30;;;;;;;5.23;3.43;;;7.10;99.90;;;;;;5020492;28;20237;-62
2021/12/17 10:08:01;;;;;;;4.60;3.43;;;7.10;99.90;;;;;;5019795;28;20237;-62
2021/12/17 10:10:38;;;;;;;4.93;3.27;;;7.10;99.90;;;;;;5009361;28;20264;-62
2021/12/17 10:13:08;;;;;;;6.87;3.20;;;7.10;99.90;;;;;;5014674;28;20328;-62
2021/12/17 10:15:40;;;;;;;4.53;2.87;;;7.10;99.90;;;;;;5010811;28;20260;-62
2021/12/17 10:18:08;;;;;;;3.70;2.80;;;7.10;99.90;;;;;;5010719;28;20312;-62
2021/12/17 10:20:42;;;;;;;4.93;2.87;;;7.20;99.90;;;;;;5010438;28;20236;-62
2021/12/17 10:23:12;;;;;;;5.17;3.20;;;7.20;99.90;;;;;;5014627;28;20716;-62
2021/12/17 10:25:43;;;;;;;6.07;3.57;;;7.20;99.90;;;;;;5006893;28;20233;-62
2021/12/17 10:28:13;;;;;;;6.00;3.63;;;7.20;99.90;;;;;;5014741;28;20720;-62
2021/12/17 10:30:45;;;;;;;5.60;3.37;;;7.20;99.90;;;;;;5007267;28;20239;-62
2021/12/17 10:33:15;;;;;;;3.90;2.97;;;7.20;99.90;;;;;;4990751;28;20261;-63
2021/12/17 10:35:46;;;;;;;5.97;3.53;;;7.20;99.90;;;;;;977138;28;10002038;-62
2021/12/17 10:38:18;;;;;;;4.77;3.23;;;7.30;99.90;;;;;;5014200;28;20224;-62
2021/12/17 10:40:48;;;;;;;4.77;3.00;;;7.30;99.90;;;;;;5018990;28;20286;-62
2021/12/17 10:43:22;;;;;;;5.53;2.97;;;7.30;99.90;;;;;;5019794;28;20241;-62
2021/12/17 10:46:03;;;;;;;4.47;3.03;;;7.30;99.90;;;;;;5014497;28;20249;-61
2021/12/17 10:48:36;;;;;;;4.03;2.90;;;7.30;99.90;;;;;;5014901;28;20243;-62
2021/12/17 10:51:30;;;;;;;4.90;2.87;;;7.40;99.90;;;;;;5016744;28;20236;-62
2021/12/17 10:54:00;;;;;;;4.73;3.20;;;7.40;99.90;;;;;;5019752;28;20294;-62
2021/12/17 10:56:32;;;;;;;5.87;3.17;;;7.50;99.90;;;;;;5013879;28;20237;-62
2021/12/17 10:59:03;;;;;;;4.67;2.87;;;7.50;99.90;;;;;;5016190;28;20312;-60
2021/12/17 11:01:35;;;;;;;4.47;3.33;;;7.60;99.90;;;;;;5028087;28;20236;-60
2021/12/17 11:04:09;;;;;;;5.20;3.20;;;7.60;99.90;;;;;;5014010;28;20268;-60
2021/12/17 11:06:45;;;;;;;4.77;2.83;;;7.50;99.90;;;;;;4995153;28;20761;-60
2021/12/17 11:09:36;;;;;;;4.80;3.50;;;7.60;99.90;;;;;;5013992;28;20265;-60
2021/12/17 11:12:27;;;;;;;5.77;3.47;;;7.60;99.90;;;;;;4998738;28;20735;-60
2021/12/17 11:15:07;;;;;;;3.90;3.17;;;7.60;99.90;;;;;;5014163;28;20648;-60
2021/12/17 11:17:37;;;;;;;5.23;3.40;;;7.70;99.90;;;;;;5017362;28;20635;-60
2021/12/17 11:20:09;;;;;;;4.63;3.43;;;7.70;99.90;;;;;;5005693;28;20242;-60
2021/12/17 11:22:39;;;;;;;4.30;3.27;;;7.70;99.90;;;;;;5009293;28;20658;-60
2021/12/17 11:25:08;;;;;;;5.03;3.33;;;7.70;99.90;;;;;;5013896;28;20245;-60
2021/12/17 11:27:36;;;;;;;4.10;3.20;;;7.70;99.90;;;;;;5013731;28;20783;-60
2021/12/17 11:30:07;;;;;;;4.63;3.23;;;7.70;99.90;;;;;;5013765;28;20241;-60
2021/12/17 11:32:36;;;;;;;3.87;3.07;;;7.70;99.90;;;;;;5020675;28;20316;-60
2021/12/17 11:35:06;;;;;;;4.93;3.47;;;7.70;99.90;;;;;;5008833;28;20237;-60
2021/12/17 11:37:35;;;;;;;6.03;3.30;;;7.80;99.90;;;;;;5012980;28;20325;-60
2021/12/17 11:40:10;;;;;;;5.10;3.27;;;7.80;99.90;;;;;;5013623;28;20240;-60
2021/12/17 11:42:59;;;;;;;4.47;3.33;;;7.80;99.90;;;;;;5019432;28;20229;-60
2021/12/17 11:45:29;;;;;;;5.60;3.60;;;7.80;99.90;;;;;;5023012;28;20704;-62
2021/12/17 11:48:16;;;;;;;5.67;3.73;;;7.80;99.90;;;;;;5024135;28;20241;-60
2021/12/17 11:50:46;;;;;;;5.27;3.27;;;7.80;99.90;;;;;;5013066;28;20562;-60
2021/12/17 11:53:21;;;;;;;5.30;3.40;;;7.80;99.90;;;;;;5013176;28;20735;-60
2021/12/17 11:55:57;;;;;;;4.50;3.40;;;7.90;99.90;;;;;;5013166;28;20241;-60
2021/12/17 11:58:48;;;;;;;4.57;3.03;;;7.90;99.90;;;;;;5014092;28;20236;-60
2021/12/17 12:01:51;;;;;;;4.17;3.00;;;7.90;99.90;;;;;;5020041;28;20228;-60
2021/12/17 12:04:42;;;;;;;3.80;2.83;;;7.90;99.90;;;;;;5021556;28;20243;-60
2021/12/17 12:07:11;;;;;;;4.60;2.90;;;8.00;99.90;;;;;;5013407;28;20328;-60
2021/12/17 12:12:48;;;;;;;4.60;3.27;;;8.00;99.90;;;;;;4201640;26;20256;-64
2021/12/17 12:15:34;;;;;;;4.17;3.07;;;8.10;99.90;;;;;;4951340;28;20302;-64
2021/12/17 12:18:18;;;;;;;3.40;2.70;;;8.10;99.90;;;;;;4976453;28;20235;-64
2021/12/17 12:20:59;;;;;;;3.63;2.47;;;8.20;99.90;;;;;;4951904;28;20298;-64
2021/12/17 12:23:45;;;;;;;3.00;2.60;;;8.20;99.90;;;;;;4952137;28;20239;-64
2021/12/17 12:26:17;;;;;;;3.07;2.30;;;8.10;99.90;;;;;;4955978;28;20726;-64
2021/12/17 12:28:50;;;;;;;2.67;2.40;;;8.20;99.90;;;;;;4952873;28;20243;-64
2021/12/17 12:31:58;;;;;;;4.13;3.03;;;8.20;99.90;;;;;;4946896;28;20239;-64
2021/12/17 12:34:42;;;;;;;3.18;2.64;;;8.20;99.90;;;;;;3098321;28;10002997;-64
2021/12/17 12:37:28;;;;;;;3.07;2.20;;;8.30;99.90;;;;;;3580684;28;10002081;-64
2021/12/17 12:40:15;;;;;;;2.90;2.23;;;8.30;99.90;;;;;;4953698;28;20467;-64
2021/12/17 12:42:52;;;;;;;3.17;2.50;;;8.30;99.90;;;;;;4953553;28;20322;-64
2021/12/17 12:45:23;;;;;;;2.90;2.50;;;8.30;99.90;;;;;;4949390;28;20290;-64
2021/12/17 12:47:58;;;;;;;3.63;2.73;;;8.30;99.90;;;;;;4952501;28;20242;-64
2021/12/17 12:50:36;;;;;;;3.73;2.60;;;8.30;99.90;;;;;;4950965;28;20635;-64
2021/12/17 12:53:11;;;;;;;3.73;2.90;;;8.30;99.90;;;;;;4953583;28;20243;-64
2021/12/17 12:55:44;;;;;;;3.20;2.50;;;8.30;99.90;;;;;;4945533;28;20243;-64
2021/12/17 12:58:16;;;;;;;3.87;2.80;;;8.40;99.90;;;;;;4978607;28;20326;-64
2021/12/17 13:00:47;;;;;;;3.53;3.00;;;8.40;99.90;;;;;;4953536;28;20722;-64
2021/12/17 13:03:17;;;;;;;3.97;3.40;;;8.30;99.90;;;;;;4953530;28;20738;-64
2021/12/17 13:05:49;;;;;;;6.37;3.80;;;8.30;99.90;;;;;;4953456;28;20239;-64
2021/12/17 13:08:21;;;;;;;5.67;4.10;;;8.30;99.90;;;;;;4950445;28;20239;-64
2021/12/17 13:10:54;;;;;;;5.37;4.07;;;8.30;99.90;;;;;;4946746;28;20243;-64
2021/12/17 13:13:33;;;;;;;6.10;3.93;;;8.20;99.90;;;;;;4953271;28;20239;-64
2021/12/17 13:16:11;;;;;;;6.90;4.47;;;8.20;99.90;;;;;;4953190;28;20327;-64
2021/12/17 13:24:23;;;;;;;5.90;4.67;;;8.30;99.90;;;;;;4946979;28;20797;-64
2021/12/17 13:26:54;;;;;;;6.37;5.37;;;8.30;99.90;;;;;;4949588;28;20238;-64
2021/12/17 13:29:25;;;;;;;6.63;4.83;;;8.30;99.90;;;;;;4951613;28;20242;-64
2021/12/17 13:31:56;;;;;;;7.53;5.10;;;8.30;99.90;;;;;;4966714;28;20580;-64
2021/12/17 13:34:27;;;;;;;6.47;4.60;;;8.30;99.90;;;;;;4953224;28;20270;-64
2021/12/17 13:37:11;;;;;;;7.23;4.83;;;8.30;99.90;;;;;;4952941;28;20274;-64
2021/12/17 13:39:44;;;;;;;4.47;3.87;;;8.30;99.90;;;;;;4952666;28;20234;-64
2021/12/17 13:42:16;;;;;;;4.33;3.93;;;8.40;99.90;;;;;;4958308;28;20242;-64
2021/12/17 13:44:49;;;;;;;4.43;4.03;;;8.40;99.90;;;;;;4972269;28;20229;-64
2021/12/17 13:47:24;;;;;;;4.20;3.50;;;8.30;99.90;;;;;;4970956;28;20606;-64
2021/12/17 13:50:01;;;;;;;3.00;2.77;;;8.40;99.90;;;;;;4953286;28;20269;-64
2021/12/17 13:52:36;;;;;;;3.10;2.73;;;8.40;99.90;;;;;;4960480;28;20242;-64
2021/12/17 13:55:10;;;;;;;2.23;2.03;;;8.40;99.90;;;;;;4972315;28;20242;-64
2021/12/17 13:57:41;;;;;;;3.07;2.40;;;8.50;99.90;;;;;;4962937;28;20242;-64
2021/12/17 14:00:13;;;;;;;2.80;2.50;;;8.50;99.90;;;;;;4952862;28;20243;-64
2021/12/17 14:02:43;;;;;;;2.57;2.37;;;8.40;99.90;;;;;;4947688;28;20240;-64
2021/12/17 14:05:16;;;;;;;2.60;2.40;;;8.50;99.90;;;;;;4942778;28;20246;-64
2021/12/17 14:07:50;;;;;;;2.20;2.00;;;8.40;99.90;;;;;;4944953;28;20668;-64
2021/12/17 14:10:22;;;;;;;3.00;2.50;;;8.40;99.90;;;;;;4941739;28;20299;-64
2021/12/17 14:12:51;;;;;;;2.47;2.20;;;8.40;99.90;;;;;;4943430;28;20290;-64
2021/12/17 14:15:43;;;;;;;3.77;2.40;;;8.40;99.90;;;;;;4945565;28;20294;-64
2021/12/17 14:18:15;;;;;;;2.30;2.10;;;8.40;99.90;;;;;;4961851;28;20239;-64
2021/12/17 14:20:45;;;;;;;2.70;2.50;;;8.40;99.90;;;;;;4944995;28;20782;-64
2021/12/17 14:23:17;;;;;;;3.03;2.63;;;8.40;99.90;;;;;;4946991;28;20231;-64
2021/12/17 14:25:48;;;;;;;2.97;2.40;;;8.40;99.90;;;;;;4964865;28;20699;-64
2021/12/17 14:28:19;;;;;;;3.47;2.73;;;8.40;99.90;;;;;;4946933;28;20294;-64
2021/12/17 14:30:55;;;;;;;3.47;3.10;;;8.40;99.90;;;;;;4952490;28;20243;-64
2021/12/17 14:33:26;;;;;;;3.03;2.73;;;8.40;99.90;;;;;;4967037;28;20847;-64
2021/12/17 14:35:58;;;;;;;3.40;3.10;;;8.40;99.90;;;;;;4952955;28;20241;-64
2021/12/17 14:38:40;;;;;;;3.57;3.10;;;8.40;99.90;;;;;;4951651;28;20318;-64
2021/12/17 14:41:16;;;;;;;4.00;3.57;;;8.40;99.90;;;;;;4952359;28;20647;-64
2021/12/17 14:43:50;;;;;;;4.27;3.53;;;8.40;99.90;;;;;;4946608;28;20231;-64
2021/12/17 14:46:23;;;;;;;4.00;3.30;;;8.40;99.90;;;;;;4935107;28;20247;-64
2021/12/17 14:49:16;;;;;;;4.97;3.37;;;8.40;99.90;;;;;;4967326;28;20278;-64
2021/12/17 15:00:26;;;;;;;4.43;3.90;;;8.40;99.90;;;;;;4958745;28;20262;-64
2021/12/17 15:02:59;;;;;;;5.07;3.90;;;8.40;99.90;;;;;;4952182;28;20313;-64
2021/12/17 15:05:29;;;;;;;4.93;4.03;;;8.40;99.90;;;;;;4966296;28;20246;-64
2021/12/17 15:08:02;;;;;;;4.60;4.13;;;8.40;99.90;;;;;;4961630;28;20270;-64
2021/12/17 15:10:30;;;;;;;5.63;4.27;;;8.40;99.90;;;;;;4964687;28;20720;-64
2021/12/17 15:13:00;;;;;;;5.87;5.10;;;8.40;99.90;;;;;;4962039;28;20694;-64
2021/12/17 15:15:31;;;;;;;4.63;4.13;;;8.40;99.90;;;;;;4972374;28;20250;-64
2021/12/17 15:17:59;;;;;;;4.43;4.03;;;8.30;99.90;;;;;;4968958;28;20274;-64
2021/12/17 15:20:30;;;;;;;4.60;3.73;;;8.40;99.90;;;;;;4956191;28;20235;-64
2021/12/17 15:23:03;;;;;;;5.37;4.50;;;8.30;99.90;;;;;;4952065;28;20243;-64
2021/12/17 15:25:32;;;;;;;6.47;5.20;;;8.30;99.90;;;;;;4963414;28;20240;-64
2021/12/17 15:28:02;;;;;;;5.63;5.07;;;8.30;99.90;;;;;;4967418;28;20231;-63
2021/12/17 15:30:32;;;;;;;7.13;5.60;;;8.30;99.90;;;;;;4971196;28;20239;-64
2021/12/17 15:33:01;;;;;;;8.57;6.60;;;8.40;99.90;;;;;;4964988;28;20227;-64
2021/12/17 15:35:29;;;;;;;6.70;5.43;;;8.30;99.90;;;;;;4949113;28;20318;-64
2021/12/17 15:37:59;;;;;;;7.30;5.53;;;8.30;99.90;;;;;;4949176;28;20700;-64
2021/12/17 15:40:31;;;;;;;6.03;4.80;;;8.20;99.90;;;;;;4951974;28;20324;-63
2021/12/17 15:43:02;;;;;;;4.20;3.70;;;8.20;99.90;;;;;;4947654;28;20235;-64
2021/12/17 15:45:37;;;;;;;4.67;3.00;;;8.10;99.90;;;;;;4949680;28;20613;-64
2021/12/17 15:48:06;;;;;;;4.50;2.70;;;8.10;99.90;;;;;;4955284;28;20750;-64
2021/12/17 15:50:54;;;;;;;3.77;2.60;;;8.10;99.90;;;;;;4964907;28;20238;-64
2021/12/17 15:53:22;;;;;;;3.83;2.80;;;8.10;99.90;;;;;;4962204;28;20239;-64
2021/12/17 15:55:51;;;;;;;3.17;2.60;;;8.10;99.90;;;;;;4968833;28;20246;-64
2021/12/17 15:58:19;;;;;;;3.77;2.53;;;8.10;99.90;;;;;;4951327;28;20239;-64
2021/12/17 16:00:50;;;;;;;3.13;2.17;;;8.10;99.90;;;;;;4955949;28;20914;-64